createdAt,value
2023-04-18T00:00:06.132Z,481.0000
2023-04-18T00:01:07.133Z,500.0000
2023-04-18T00:02:08.263Z,491.6154
2023-04-18T00:03:09.528Z,469.8462
2023-04-18T00:04:10.524Z,454.8462
2023-04-18T00:05:11.429Z,483.1538
2023-04-18T00:06:12.355Z,449.6154
2023-04-18T00:07:13.390Z,448.0000
2023-04-18T00:08:14.477Z,473.9231
2023-04-18T00:09:15.486Z,472.1538
2023-04-18T00:10:16.511Z,481.6154
2023-04-18T00:11:17.532Z,500.1538
2023-04-18T00:12:18.570Z,483.8462
2023-04-18T00:13:19.673Z,473.8462
2023-04-18T00:14:20.664Z,498.6154
2023-04-18T00:15:21.695Z,475.8462
2023-04-18T00:16:22.816Z,491.5385
2023-04-18T00:17:23.825Z,509.0769
2023-04-18T00:18:24.851Z,528.2308
2023-04-18T00:19:25.856Z,549.9231
2023-04-18T00:20:26.893Z,522.6923
2023-04-18T00:21:27.963Z,543.8461
2023-04-18T00:22:28.973Z,550.6154
2023-04-18T00:23:30.055Z,500.1538
2023-04-18T00:24:31.030Z,502.6154
2023-04-18T00:25:32.117Z,524.9231
2023-04-18T00:26:33.109Z,543.5385
2023-04-18T00:27:34.176Z,521.7692
2023-04-18T00:28:35.267Z,501.6923
2023-04-18T00:29:36.237Z,515.9231
2023-04-18T00:30:37.354Z,512.5385
2023-04-18T00:31:38.323Z,487.0769
2023-04-18T00:32:39.410Z,508.8462
2023-04-18T00:33:40.461Z,498.3077
2023-04-18T00:34:41.462Z,510.1538
2023-04-18T00:35:42.475Z,517.0769
2023-04-18T00:36:43.546Z,552.1539
2023-04-18T00:37:44.615Z,492.1538
2023-04-18T00:38:45.658Z,473.7692
2023-04-18T00:39:46.621Z,491.5385
2023-04-18T00:40:47.689Z,489.4615
2023-04-18T00:41:48.687Z,490.0000
2023-04-18T00:42:49.754Z,484.4615
2023-04-18T00:43:50.737Z,499.2308
2023-04-18T00:44:51.731Z,549.2308
2023-04-18T00:45:52.754Z,534.9231
2023-04-18T00:46:53.792Z,526.3846
2023-04-18T00:47:54.884Z,528.3846
2023-04-18T00:48:55.893Z,532.8461
2023-04-18T00:49:56.941Z,536.0000
2023-04-18T00:50:57.944Z,495.0000
2023-04-18T00:51:58.996Z,494.4615
2023-04-18T00:53:00.048Z,533.0769
2023-04-18T00:54:01.124Z,541.5385
2023-04-18T00:55:02.115Z,528.0000
2023-04-18T00:56:03.170Z,527.9231
2023-04-18T00:57:04.196Z,516.0000
2023-04-18T00:58:05.241Z,489.7692
2023-04-18T00:59:06.314Z,526.6154
2023-04-18T01:00:07.312Z,550.6923
2023-04-18T01:01:08.393Z,549.0769
2023-04-18T01:02:09.420Z,536.7692
2023-04-18T01:03:10.715Z,515.4615
2023-04-18T01:04:11.699Z,497.1538
2023-04-18T01:05:12.503Z,524.3077
2023-04-18T01:06:13.545Z,533.9231
2023-04-18T01:07:14.577Z,524.2308
2023-04-18T01:08:15.619Z,512.0769
2023-04-18T01:09:16.712Z,511.3077
2023-04-18T01:10:17.709Z,549.3077
2023-04-18T01:11:18.754Z,575.0769
2023-04-18T01:12:19.781Z,518.9231
2023-04-18T01:13:20.826Z,533.7692
2023-04-18T01:14:21.916Z,545.9231
2023-04-18T01:15:22.946Z,561.6923
2023-04-18T01:16:24.069Z,568.7692
2023-04-18T01:17:25.015Z,555.1539
2023-04-18T01:18:26.007Z,533.6154
2023-04-18T01:19:27.115Z,552.3846
2023-04-18T01:20:28.110Z,544.6923
2023-04-18T01:21:29.164Z,486.6923
2023-04-18T01:22:30.187Z,500.9231
2023-04-18T01:23:31.240Z,512.6923
2023-04-18T01:24:32.297Z,498.6154
2023-04-18T01:25:33.303Z,487.3077
2023-04-18T01:26:34.351Z,501.1538
2023-04-18T01:27:35.382Z,545.3077
2023-04-18T01:28:36.428Z,546.1539
2023-04-18T01:29:38.959Z,517.0000
2023-04-18T01:30:38.583Z,511.3846
2023-04-18T01:31:39.596Z,503.9231
2023-04-18T01:32:40.736Z,525.1539
2023-04-18T01:33:41.643Z,552.6923
2023-04-18T01:34:42.707Z,553.6923
2023-04-18T01:35:43.735Z,524.6923
2023-04-18T01:36:44.765Z,517.9231
2023-04-18T01:37:45.809Z,547.9231
2023-04-18T01:38:46.848Z,527.2308
2023-04-18T01:39:47.919Z,518.3846
2023-04-18T01:40:48.917Z,495.6154
2023-04-18T01:41:49.946Z,508.4615
2023-04-18T01:42:51.009Z,554.7692
2023-04-18T01:43:52.034Z,533.3846
2023-04-18T01:44:53.109Z,565.5385
2023-04-18T01:45:54.104Z,543.1539
2023-04-18T01:46:55.204Z,525.4615
2023-04-18T01:47:56.272Z,533.1539
2023-04-18T01:48:57.234Z,552.0769
2023-04-18T01:49:58.286Z,523.4615
2023-04-18T01:50:59.310Z,480.6154
2023-04-18T01:52:00.360Z,494.0769
2023-04-18T01:53:01.394Z,513.0769
2023-04-18T01:54:02.425Z,502.9231
2023-04-18T01:55:03.480Z,483.1538
2023-04-18T01:56:04.497Z,477.9231
2023-04-18T01:57:05.539Z,496.0000
2023-04-18T01:58:06.577Z,491.9231
2023-04-18T01:59:07.620Z,480.2308
2023-04-18T02:00:08.682Z,474.6923
2023-04-18T02:01:09.734Z,503.0769
2023-04-18T02:02:10.822Z,496.4615
2023-04-18T02:03:11.832Z,510.8462
2023-04-18T02:04:13.158Z,552.3077
2023-04-18T02:05:13.879Z,548.6154
2023-04-18T02:06:14.954Z,509.2308
2023-04-18T02:07:15.967Z,467.9231
2023-04-18T02:08:16.945Z,478.0769
2023-04-18T02:09:17.992Z,499.6923
2023-04-18T02:10:19.068Z,477.3846
2023-04-18T02:11:20.111Z,477.7692
2023-04-18T02:12:21.118Z,490.0000
2023-04-18T02:13:22.157Z,504.9231
2023-04-18T02:14:23.181Z,519.7692
2023-04-18T02:15:24.263Z,530.7692
2023-04-18T02:16:25.281Z,527.5385
2023-04-18T02:17:26.293Z,518.0000
2023-04-18T02:18:27.359Z,512.6154
2023-04-18T02:19:28.379Z,500.8462
2023-04-18T02:20:29.436Z,491.1538
2023-04-18T02:21:30.487Z,488.9231
2023-04-18T02:22:31.510Z,507.7692
2023-04-18T02:23:32.565Z,510.1538
2023-04-18T02:24:33.594Z,502.3077
2023-04-18T02:25:34.675Z,502.4615
2023-04-18T02:26:35.706Z,522.6154
2023-04-18T02:27:36.718Z,523.5385
2023-04-18T02:28:37.754Z,511.8462
2023-04-18T02:29:38.816Z,511.4615
2023-04-18T02:30:39.896Z,497.0769
2023-04-18T02:31:40.902Z,482.3077
2023-04-18T02:32:41.922Z,487.0769
2023-04-18T02:33:42.936Z,517.0769
2023-04-18T02:34:43.998Z,512.3846
2023-04-18T02:35:45.045Z,505.6154
2023-04-18T02:36:46.083Z,511.4615
2023-04-18T02:37:47.113Z,533.7692
2023-04-18T02:38:48.160Z,540.5385
2023-04-18T02:39:49.209Z,528.8461
2023-04-18T02:40:50.253Z,560.2308
2023-04-18T02:41:51.321Z,547.5385
2023-04-18T02:42:52.373Z,535.7692
2023-04-18T02:43:53.369Z,514.2308
2023-04-18T02:44:54.398Z,514.6154
2023-04-18T02:45:55.499Z,507.1538
2023-04-18T02:46:56.469Z,516.4615
2023-04-18T02:47:57.580Z,548.3077
2023-04-18T02:48:58.572Z,526.8461
2023-04-18T02:49:59.631Z,512.1539
2023-04-18T02:51:00.695Z,516.5385
2023-04-18T02:52:01.709Z,506.0769
2023-04-18T02:53:02.768Z,526.0000
2023-04-18T02:54:03.828Z,562.3077
2023-04-18T02:55:04.832Z,536.8461
2023-04-18T02:56:05.929Z,519.2308
2023-04-18T02:57:06.932Z,537.7692
2023-04-18T02:58:07.998Z,549.0769
2023-04-18T02:59:08.996Z,518.5385
2023-04-18T03:00:10.041Z,514.1539
2023-04-18T03:01:11.141Z,498.3077
2023-04-18T03:02:12.129Z,494.1538
2023-04-18T03:03:13.229Z,494.2308
2023-04-18T03:04:14.464Z,501.6923
2023-04-18T03:05:15.217Z,475.9231
2023-04-18T03:06:16.379Z,503.4615
2023-04-18T03:07:17.325Z,505.1538
2023-04-18T03:08:18.360Z,512.8461
2023-04-18T03:09:19.411Z,515.2308
2023-04-18T03:10:20.494Z,505.8462
2023-04-18T03:11:21.574Z,505.2308
2023-04-18T03:12:22.589Z,493.6923
2023-04-18T03:13:23.661Z,496.3077
2023-04-18T03:14:24.672Z,478.0769
2023-04-18T03:15:25.718Z,475.3077
2023-04-18T03:16:26.829Z,497.5385
2023-04-18T03:17:27.806Z,490.1538
2023-04-18T03:18:28.867Z,510.3077
2023-04-18T03:19:29.858Z,494.1538
2023-04-18T03:20:30.918Z,491.6154
2023-04-18T03:21:32.001Z,501.2308
2023-04-18T03:22:33.042Z,497.3077
2023-04-18T03:23:34.052Z,495.4615
2023-04-18T03:24:35.121Z,489.6154
2023-04-18T03:25:36.129Z,495.3846
2023-04-18T03:26:37.207Z,494.1538
2023-04-18T03:27:38.267Z,493.0000
2023-04-18T03:28:39.285Z,487.3077
2023-04-18T03:29:40.295Z,498.3077
2023-04-18T03:30:41.336Z,504.6154
2023-04-18T03:31:42.523Z,522.3077
2023-04-18T03:32:43.525Z,519.9231
2023-04-18T03:33:44.475Z,502.2308
2023-04-18T03:34:45.516Z,508.9231
2023-04-18T03:35:46.535Z,496.1538
2023-04-18T03:36:48.156Z,514.1539
2023-04-18T03:37:48.615Z,565.6923
2023-04-18T03:38:49.756Z,558.1539
2023-04-18T03:39:50.717Z,533.1539
2023-04-18T03:40:51.736Z,518.6923
2023-04-18T03:41:52.773Z,507.1538
2023-04-18T03:42:53.851Z,511.0769
2023-04-18T03:43:54.866Z,510.1538
2023-04-18T03:44:55.880Z,520.2308
2023-04-18T03:45:57.131Z,539.4615
2023-04-18T03:46:57.958Z,550.3077
2023-04-18T03:47:59.041Z,545.0769
2023-04-18T03:49:00.036Z,549.1539
2023-04-18T03:50:01.064Z,558.3846
2023-04-18T03:51:02.103Z,550.0000
2023-04-18T03:52:03.155Z,562.8461
2023-04-18T03:53:04.213Z,508.3846
2023-04-18T03:54:05.255Z,524.1539
2023-04-18T03:55:06.257Z,545.3846
2023-04-18T03:56:07.326Z,550.6154
2023-04-18T03:57:08.517Z,503.8462
2023-04-18T03:58:09.457Z,483.0000
2023-04-18T03:59:10.460Z,503.7692
2023-04-18T04:00:11.464Z,508.4615
2023-04-18T04:01:12.498Z,514.2308
2023-04-18T04:02:13.592Z,534.7692
2023-04-18T04:03:14.698Z,536.0000
2023-04-18T04:04:16.216Z,533.3077
2023-04-18T04:05:16.677Z,526.4615
2023-04-18T04:06:17.744Z,535.0000
2023-04-18T04:07:18.741Z,516.2308
2023-04-18T04:08:19.842Z,545.3077
2023-04-18T04:09:20.835Z,532.2308
2023-04-18T04:10:21.877Z,527.7692
2023-04-18T04:11:23.110Z,509.0769
2023-04-18T04:12:23.944Z,514.8461
2023-04-18T04:13:24.998Z,505.8462
2023-04-18T04:14:26.150Z,512.8461
2023-04-18T04:15:27.081Z,553.3846
2023-04-18T04:16:28.294Z,549.8461
2023-04-18T04:17:29.339Z,536.0000
2023-04-18T04:18:30.222Z,504.6154
2023-04-18T04:19:31.247Z,499.8462
2023-04-18T04:20:32.271Z,492.6923
2023-04-18T04:21:33.282Z,499.3846
2023-04-18T04:22:34.360Z,504.6923
2023-04-18T04:23:35.438Z,495.4615
2023-04-18T04:24:36.445Z,521.3846
2023-04-18T04:25:37.448Z,526.4615
2023-04-18T04:26:38.634Z,548.6154
2023-04-18T04:27:39.545Z,529.4615
2023-04-18T04:28:40.624Z,554.1539
2023-04-18T04:29:41.650Z,515.8461
2023-04-18T04:30:42.656Z,533.9231
2023-04-18T04:31:43.813Z,548.1539
2023-04-18T04:32:44.781Z,547.4615
2023-04-18T04:33:45.810Z,525.6923
2023-04-18T04:34:46.828Z,555.3077
2023-04-18T04:35:47.886Z,570.4615
2023-04-18T04:36:48.909Z,591.0000
2023-04-18T04:37:49.938Z,579.8461
2023-04-18T04:38:51.018Z,558.3077
2023-04-18T04:39:52.000Z,556.7692
2023-04-18T04:40:53.052Z,570.6923
2023-04-18T04:41:54.120Z,589.6154
2023-04-18T04:42:55.115Z,604.2308
2023-04-18T04:43:56.179Z,582.7692
2023-04-18T04:44:57.275Z,571.1539
2023-04-18T04:45:58.253Z,550.6923
2023-04-18T04:46:59.438Z,515.0769
2023-04-18T04:48:00.400Z,523.2308
2023-04-18T04:49:01.401Z,523.7692
2023-04-18T04:50:02.388Z,538.5385
2023-04-18T04:51:03.596Z,549.6154
2023-04-18T04:52:04.464Z,520.4615
2023-04-18T04:53:05.502Z,527.0769
2023-04-18T04:54:06.551Z,526.0769
2023-04-18T04:55:07.697Z,518.9231
2023-04-18T04:56:08.629Z,542.0000
2023-04-18T04:57:09.669Z,542.6154
2023-04-18T04:58:10.698Z,558.6923
2023-04-18T04:59:11.738Z,558.6923
2023-04-18T05:00:12.745Z,548.0000
2023-04-18T05:01:13.874Z,539.0000
2023-04-18T05:02:14.959Z,561.9231
2023-04-18T05:03:16.070Z,562.0000
2023-04-18T05:04:17.477Z,538.2308
2023-04-18T05:05:18.073Z,534.5385
2023-04-18T05:06:19.061Z,576.9231
2023-04-18T05:07:20.212Z,585.6923
2023-04-18T05:08:21.134Z,566.0769
2023-04-18T05:09:22.301Z,557.6154
2023-04-18T05:10:23.202Z,540.7692
2023-04-18T05:11:24.254Z,546.8461
2023-04-18T05:12:25.295Z,519.0000
2023-04-18T05:13:26.340Z,570.3846
2023-04-18T05:14:27.419Z,574.0769
2023-04-18T05:15:28.425Z,563.3077
2023-04-18T05:16:29.456Z,588.8461
2023-04-18T05:17:30.510Z,588.4615
2023-04-18T05:18:33.059Z,621.3077
2023-04-18T05:19:32.599Z,565.3846
2023-04-18T05:20:33.579Z,582.6923
2023-04-18T05:21:34.610Z,595.6154
2023-04-18T05:22:35.722Z,623.9231
2023-04-18T05:23:36.681Z,604.9231
2023-04-18T05:24:37.800Z,611.0000
2023-04-18T05:25:38.767Z,610.3846
2023-04-18T05:26:39.794Z,591.6923
2023-04-18T05:27:40.870Z,542.1539
2023-04-18T05:28:41.907Z,563.0769
2023-04-18T05:29:42.970Z,546.0000
2023-04-18T05:30:44.024Z,523.8461
2023-04-18T05:31:44.999Z,539.7692
2023-04-18T05:32:46.190Z,556.9231
2023-04-18T05:33:47.086Z,578.8461
2023-04-18T05:34:48.167Z,572.3846
2023-04-18T05:35:49.181Z,569.5385
2023-04-18T05:36:50.263Z,565.0000
2023-04-18T05:37:51.202Z,585.6154
2023-04-18T05:38:52.276Z,621.8461
2023-04-18T05:39:53.350Z,609.7692
2023-04-18T05:40:54.363Z,595.9231
2023-04-18T05:41:55.391Z,573.9231
2023-04-18T05:42:56.417Z,554.3077
2023-04-18T05:44:04.923Z,527.8461
2023-04-18T05:44:58.535Z,559.8461
2023-04-18T05:45:59.623Z,618.4615
2023-04-18T05:47:00.560Z,630.5385
2023-04-18T05:48:01.833Z,574.6154
2023-04-18T05:49:02.632Z,578.8461
2023-04-18T05:50:03.755Z,581.5385
2023-04-18T05:51:04.712Z,578.5385
2023-04-18T05:52:05.750Z,567.0769
2023-04-18T05:53:06.809Z,579.6154
2023-04-18T05:54:07.873Z,440.3846
2023-04-18T05:55:08.936Z,549.0769
2023-04-18T05:56:09.958Z,595.8461
2023-04-18T05:57:10.971Z,590.8461
2023-04-18T05:58:12.290Z,588.7692
2023-04-18T05:59:13.046Z,600.7692
2023-04-18T06:00:14.187Z,565.9231
2023-04-18T06:01:15.342Z,578.1539
2023-04-18T06:02:16.165Z,572.4615
2023-04-18T06:03:17.543Z,581.6923
2023-04-18T06:04:18.464Z,617.0000
2023-04-18T06:05:19.719Z,593.3077
2023-04-18T06:06:20.254Z,614.3077
2023-04-18T06:07:21.306Z,606.3846
2023-04-18T06:08:22.344Z,592.0000
2023-04-18T06:09:23.412Z,616.3846
2023-04-18T06:10:24.467Z,599.1539
2023-04-18T06:11:25.509Z,583.9231
2023-04-18T06:12:26.524Z,610.0000
2023-04-18T06:13:27.556Z,615.8461
2023-04-18T06:14:28.581Z,602.4615
2023-04-18T06:15:29.665Z,618.7692
2023-04-18T06:16:30.733Z,627.4615
2023-04-18T06:17:31.743Z,633.9231
2023-04-18T06:18:32.749Z,618.3846
2023-04-18T06:19:33.803Z,618.9231
2023-04-18T06:20:34.826Z,621.2308
2023-04-18T06:21:35.851Z,596.9231
2023-04-18T06:22:36.914Z,603.4615
2023-04-18T06:23:37.958Z,645.4615
2023-04-18T06:24:38.966Z,654.5385
2023-04-18T06:25:40.012Z,628.8461
2023-04-18T06:26:41.057Z,515.4615
2023-04-18T06:27:42.092Z,544.8461
2023-04-18T06:28:43.118Z,636.8461
2023-04-18T06:29:44.154Z,600.4615
2023-04-18T06:30:45.151Z,603.8461
2023-04-18T06:31:46.307Z,622.3077
2023-04-18T06:32:47.361Z,622.6154
2023-04-18T06:33:48.258Z,629.6923
2023-04-18T06:34:49.310Z,621.6923
2023-04-18T06:35:50.359Z,610.4615
2023-04-18T06:36:51.410Z,631.7692
2023-04-18T06:37:52.640Z,651.5385
2023-04-18T06:38:53.558Z,609.3077
2023-04-18T06:39:54.650Z,606.6923
2023-04-18T06:40:55.663Z,570.4615
2023-04-18T06:41:56.735Z,563.6923
2023-04-18T06:42:57.710Z,611.6923
2023-04-18T06:44:04.229Z,571.3846
2023-04-18T06:44:59.811Z,573.6154
2023-04-18T06:46:00.852Z,560.1539
2023-04-18T06:47:02.162Z,559.6154
2023-04-18T06:48:02.948Z,559.2308
2023-04-18T06:49:03.977Z,580.0000
2023-04-18T06:50:04.988Z,585.9231
2023-04-18T06:51:06.045Z,598.5385
2023-04-18T06:52:07.140Z,589.5385
2023-04-18T06:53:08.171Z,595.3846
2023-04-18T06:54:09.166Z,609.4615
2023-04-18T06:55:10.166Z,590.1539
2023-04-18T06:56:11.231Z,606.7692
2023-04-18T06:57:12.290Z,586.6154
2023-04-18T06:58:13.289Z,585.3077
2023-04-18T06:59:14.514Z,580.8461
2023-04-18T07:00:15.395Z,569.4615
2023-04-18T07:01:16.412Z,568.6154
2023-04-18T07:02:17.498Z,570.6154
2023-04-18T07:03:18.745Z,561.3846
2023-04-18T07:04:19.870Z,538.5385
2023-04-18T07:05:20.518Z,527.9231
2023-04-18T07:06:21.613Z,552.6923
2023-04-18T07:07:22.636Z,561.2308
2023-04-18T07:08:23.654Z,576.0769
2023-04-18T07:09:24.716Z,554.0000
2023-04-18T07:10:25.735Z,561.4615
2023-04-18T07:11:26.843Z,592.9231
2023-04-18T07:12:27.929Z,532.8461
2023-04-18T07:13:28.912Z,584.6154
2023-04-18T07:14:30.820Z,595.1539
2023-04-18T07:15:31.005Z,578.9231
2023-04-18T07:16:32.067Z,607.1539
2023-04-18T07:17:33.168Z,606.3846
2023-04-18T07:18:38.117Z,602.2308
2023-04-18T07:19:35.145Z,585.5385
2023-04-18T07:20:36.195Z,561.0769
2023-04-18T07:21:37.111Z,566.5385
2023-04-18T07:22:38.276Z,587.4615
2023-04-18T07:23:39.317Z,590.6923
2023-04-18T07:24:40.331Z,591.3846
2023-04-18T07:25:41.352Z,574.0000
2023-04-18T07:26:42.398Z,590.5385
2023-04-18T07:27:43.462Z,624.9231
2023-04-18T07:28:44.531Z,601.0769
2023-04-18T07:29:45.525Z,570.0000
2023-04-18T07:30:46.578Z,507.3846
2023-04-18T07:31:47.556Z,562.1539
2023-04-18T07:32:48.754Z,630.4615
2023-04-18T07:33:49.645Z,594.9231
2023-04-18T07:34:50.678Z,573.5385
2023-04-18T07:35:51.739Z,532.4615
2023-04-18T07:36:52.769Z,533.6923
2023-04-18T07:37:53.820Z,576.0769
2023-04-18T07:38:54.848Z,602.5385
2023-04-18T07:39:56.062Z,622.3846
2023-04-18T07:40:56.885Z,589.8461
2023-04-18T07:41:57.872Z,548.0769
2023-04-18T07:42:59.045Z,557.7692
2023-04-18T07:43:59.975Z,561.0769
2023-04-18T07:45:00.999Z,560.2308
2023-04-18T07:46:02.632Z,593.3077
2023-04-18T07:47:02.994Z,587.6923
2023-04-18T07:48:04.127Z,567.7692
2023-04-18T07:49:05.068Z,572.1539
2023-04-18T07:50:06.109Z,572.8461
2023-04-18T07:51:07.589Z,544.8461
2023-04-18T07:52:08.162Z,629.6154
2023-04-18T07:53:09.235Z,610.0000
2023-04-18T07:54:10.242Z,601.0769
2023-04-18T07:55:11.292Z,572.1539
2023-04-18T07:56:12.316Z,571.0000
2023-04-18T07:57:13.822Z,584.0769
2023-04-18T07:58:14.380Z,574.4615
2023-04-18T07:59:15.732Z,540.9231
2023-04-18T08:00:16.467Z,528.9231
2023-04-18T08:01:17.522Z,523.7692
2023-04-18T08:02:18.560Z,521.8461
2023-04-18T08:03:20.113Z,525.4615
2023-04-18T08:04:20.704Z,520.0769
2023-04-18T08:05:21.673Z,598.4615
2023-04-18T08:06:22.646Z,588.7692
2023-04-18T08:07:23.700Z,563.6154
2023-04-18T08:08:24.799Z,531.7692
2023-04-18T08:09:25.805Z,556.8461
2023-04-18T08:10:26.882Z,583.1539
2023-04-18T08:11:27.895Z,564.0000
2023-04-18T08:12:28.922Z,545.0769
2023-04-18T08:13:30.012Z,599.1539
2023-04-18T08:14:30.947Z,598.3846
2023-04-18T08:15:32.028Z,566.5385
2023-04-18T08:16:33.078Z,559.2308
2023-04-18T08:17:34.137Z,574.3846
2023-04-18T08:18:35.179Z,581.3077
2023-04-18T08:19:36.159Z,534.6923
2023-04-18T08:20:37.278Z,543.3077
2023-04-18T08:21:38.221Z,532.1539
2023-04-18T08:22:49.981Z,562.3846
2023-04-18T08:23:40.342Z,552.7692
2023-04-18T08:24:44.549Z,549.5385
2023-04-18T08:25:42.355Z,520.2308
2023-04-18T08:26:43.436Z,504.3846
2023-04-18T08:27:44.431Z,519.2308
2023-04-18T08:28:46.484Z,527.6923
2023-04-18T08:29:46.566Z,531.6923
2023-04-18T08:30:47.562Z,552.5385
2023-04-18T08:31:48.649Z,550.5385
2023-04-18T08:32:49.817Z,557.3846
2023-04-18T08:33:50.699Z,608.9231
2023-04-18T08:34:51.746Z,596.4615
2023-04-18T08:35:52.721Z,560.0769
2023-04-18T08:36:53.785Z,541.0769
2023-04-18T08:37:54.789Z,527.6923
2023-04-18T08:38:55.873Z,530.7692
2023-04-18T08:39:56.869Z,532.1539
2023-04-18T08:40:57.879Z,538.2308
2023-04-18T08:41:58.948Z,533.3846
2023-04-18T08:43:00.008Z,521.2308
2023-04-18T08:44:01.182Z,531.1539
2023-04-18T08:45:02.182Z,527.3077
2023-04-18T08:46:03.375Z,526.0000
2023-04-18T08:47:04.253Z,543.1539
2023-04-18T08:48:05.279Z,539.3077
2023-04-18T08:49:06.425Z,543.6923
2023-04-18T08:50:07.321Z,530.5385
2023-04-18T08:51:08.356Z,530.0000
2023-04-18T08:52:09.405Z,551.0769
2023-04-18T08:53:10.442Z,587.0769
2023-04-18T08:54:11.586Z,539.0000
2023-04-18T08:55:12.529Z,562.3846
2023-04-18T08:56:13.577Z,460.1538
2023-04-18T08:57:14.590Z,530.2308
2023-04-18T08:58:15.679Z,586.8461
2023-04-18T08:59:16.694Z,558.7692
2023-04-18T09:00:17.735Z,530.6923
2023-04-18T09:01:18.769Z,555.0769
2023-04-18T09:02:19.817Z,554.3077
2023-04-18T09:03:20.805Z,535.0769
2023-04-18T09:04:22.076Z,532.3077
2023-04-18T09:05:22.883Z,523.0769
2023-04-18T09:06:24.379Z,533.3077
2023-04-18T09:07:24.978Z,562.1539
2023-04-18T09:08:26.037Z,563.7692
2023-04-18T09:09:27.089Z,549.6154
2023-04-18T09:10:28.142Z,527.2308
2023-04-18T09:11:29.525Z,549.0000
2023-04-18T09:12:30.212Z,553.7692
2023-04-18T09:13:31.243Z,540.7692
2023-04-18T09:14:32.301Z,524.6923
2023-04-18T09:15:33.315Z,567.8461
2023-04-18T09:16:34.478Z,574.3846
2023-04-18T09:17:35.417Z,600.6154
2023-04-18T09:18:36.412Z,565.7692
2023-04-18T09:19:37.546Z,556.0769
2023-04-18T09:20:38.615Z,560.7692
2023-04-18T09:21:39.569Z,569.6154
2023-04-18T09:22:40.600Z,569.5385
2023-04-18T09:23:41.610Z,555.6154
2023-04-18T09:24:42.615Z,584.0000
2023-04-18T09:25:44.958Z,602.2308
2023-04-18T09:26:44.654Z,585.6923
2023-04-18T09:27:45.705Z,569.1539
2023-04-18T09:28:46.738Z,552.0769
2023-04-18T09:29:47.815Z,551.7692
2023-04-18T09:30:48.828Z,571.5385
2023-04-18T09:31:49.873Z,599.1539
2023-04-18T09:32:50.967Z,600.5385
2023-04-18T09:33:51.952Z,452.6154
2023-04-18T09:34:53.152Z,591.8461
2023-04-18T09:35:54.010Z,555.1539
2023-04-18T09:36:55.104Z,546.6923
2023-04-18T09:37:56.084Z,560.0000
2023-04-18T09:38:57.458Z,550.8461
2023-04-18T09:39:58.220Z,561.5385
2023-04-18T09:40:59.183Z,529.1539
2023-04-18T09:42:00.250Z,538.0769
2023-04-18T09:43:01.277Z,537.0769
2023-04-18T09:44:02.371Z,450.1538
2023-04-18T09:45:03.452Z,526.9231
2023-04-18T09:46:04.515Z,567.0769
2023-04-18T09:47:05.459Z,567.9231
2023-04-18T09:48:06.537Z,539.0000
2023-04-18T09:49:09.676Z,551.4615
2023-04-18T09:50:08.662Z,538.3077
2023-04-18T09:51:09.689Z,552.4615
2023-04-18T09:52:10.689Z,558.4615
2023-04-18T09:53:11.701Z,569.9231
2023-04-18T09:54:12.931Z,560.8461
2023-04-18T09:55:13.902Z,580.0769
2023-04-18T09:56:14.846Z,550.4615
2023-04-18T09:57:15.874Z,534.0000
2023-04-18T09:58:16.944Z,533.0769
2023-04-18T09:59:20.507Z,557.3077
2023-04-18T10:00:18.993Z,565.2308
2023-04-18T10:01:20.135Z,560.4615
2023-04-18T10:02:21.192Z,547.0000
2023-04-18T10:03:22.256Z,551.6154
2023-04-18T10:04:23.213Z,542.5385
2023-04-18T10:05:24.250Z,470.2308
2023-04-18T10:06:25.238Z,609.1539
2023-04-18T10:07:26.325Z,609.7692
2023-04-18T10:08:27.356Z,570.6154
2023-04-18T10:09:28.455Z,564.8461
2023-04-18T10:10:29.530Z,586.9231
2023-04-18T10:11:30.546Z,541.3077
2023-04-18T10:12:31.508Z,541.4615
2023-04-18T10:13:32.568Z,550.7692
2023-04-18T10:14:33.602Z,558.6154
2023-04-18T10:15:34.638Z,510.8462
2023-04-18T10:16:36.407Z,506.4615
2023-04-18T10:17:36.762Z,483.1538
2023-04-18T10:18:38.087Z,515.8461
2023-04-18T10:19:38.791Z,559.5385
2023-04-18T10:20:40.083Z,541.7692
2023-04-18T10:21:41.001Z,537.6154
2023-04-18T10:22:41.935Z,525.7692
2023-04-18T10:23:42.949Z,536.7692
2023-04-18T10:24:44.008Z,535.6154
2023-04-18T10:25:45.008Z,567.4615
2023-04-18T10:26:46.156Z,562.8461
2023-04-18T10:27:47.177Z,572.1539
2023-04-18T10:28:48.180Z,557.9231
2023-04-18T10:29:49.183Z,573.0769
2023-04-18T10:30:50.242Z,551.3077
2023-04-18T10:31:51.383Z,543.2308
2023-04-18T10:32:52.336Z,551.6923
2023-04-18T10:34:04.014Z,534.7692
2023-04-18T10:34:54.433Z,541.3077
2023-04-18T10:35:55.401Z,551.3846
2023-04-18T10:36:56.475Z,542.3846
2023-04-18T10:37:57.481Z,536.1539
2023-04-18T10:38:58.520Z,531.8461
2023-04-18T10:39:59.532Z,564.8461
2023-04-18T10:41:00.594Z,550.9231
2023-04-18T10:42:01.657Z,558.8461
2023-04-18T10:43:02.779Z,562.3077
2023-04-18T10:44:03.694Z,584.1539
2023-04-18T10:45:04.729Z,561.6154
2023-04-18T10:46:07.439Z,560.2308
2023-04-18T10:47:06.921Z,581.3077
2023-04-18T10:48:07.873Z,615.6154
2023-04-18T10:49:08.886Z,606.6923
2023-04-18T10:50:09.926Z,579.0769
2023-04-18T10:51:11.098Z,570.3077
2023-04-18T10:52:13.364Z,573.5385
2023-04-18T10:53:13.072Z,548.6154
2023-04-18T10:54:14.212Z,536.7692
2023-04-18T10:55:15.168Z,535.5385
2023-04-18T10:56:16.190Z,559.8461
2023-04-18T10:57:17.302Z,565.0769
2023-04-18T10:58:18.168Z,576.6923
2023-04-18T10:59:19.234Z,620.5385
2023-04-18T11:00:20.416Z,625.2308
2023-04-18T11:01:21.331Z,618.5385
2023-04-18T11:02:22.396Z,596.2308
2023-04-18T11:03:23.506Z,597.6923
2023-04-18T11:04:24.510Z,571.3077
2023-04-18T11:05:25.463Z,578.3846
2023-04-18T11:06:26.479Z,583.3077
2023-04-18T11:07:29.921Z,587.4615
2023-04-18T11:08:28.572Z,596.5385
2023-04-18T11:09:29.614Z,598.4615
2023-04-18T11:10:30.667Z,591.0769
2023-04-18T11:11:31.763Z,575.6923
2023-04-18T11:12:32.826Z,568.3077
2023-04-18T11:13:33.850Z,557.3077
2023-04-18T11:14:35.016Z,573.0769
2023-04-18T11:15:36.105Z,569.7692
2023-04-18T11:16:36.979Z,580.4615
2023-04-18T11:17:38.034Z,581.0000
2023-04-18T11:18:39.042Z,593.5385
2023-04-18T11:19:40.092Z,587.5385
2023-04-18T11:20:41.120Z,580.9231
2023-04-18T11:21:42.188Z,585.0000
2023-04-18T11:22:43.206Z,572.9231
2023-04-18T11:23:44.290Z,517.5385
2023-04-18T11:24:45.264Z,598.5385
2023-04-18T11:25:46.308Z,598.9231
2023-04-18T11:26:47.299Z,590.6154
2023-04-18T11:27:48.376Z,564.6923
2023-04-18T11:28:49.401Z,549.8461
2023-04-18T11:29:50.409Z,562.6923
2023-04-18T11:30:51.438Z,549.6154
2023-04-18T11:31:52.831Z,574.8461
2023-04-18T11:32:53.565Z,576.4615
2023-04-18T11:33:54.583Z,584.0769
2023-04-18T11:34:55.570Z,599.6154
2023-04-18T11:35:56.635Z,573.6923
2023-04-18T11:36:57.647Z,560.8461
2023-04-18T11:37:58.664Z,569.0769
2023-04-18T11:38:59.793Z,551.9231
2023-04-18T11:40:00.773Z,535.6923
2023-04-18T11:41:01.811Z,549.2308
2023-04-18T11:42:02.842Z,566.0769
2023-04-18T11:43:03.875Z,568.1539
2023-04-18T11:44:04.989Z,573.2308
2023-04-18T11:45:05.941Z,587.9231
2023-04-18T11:46:07.010Z,578.7692
2023-04-18T11:47:08.022Z,600.8461
2023-04-18T11:48:09.191Z,548.1539
2023-04-18T11:49:10.132Z,553.8461
2023-04-18T11:50:11.121Z,585.6923
2023-04-18T11:51:12.326Z,617.0769
2023-04-18T11:52:13.494Z,537.6154
2023-04-18T11:53:14.232Z,578.3846
2023-04-18T11:54:15.441Z,593.0000
2023-04-18T11:55:16.318Z,559.0769
2023-04-18T11:56:17.373Z,517.9231